Strona główna
METAR-TAF:

METAR-TAF

Lotnisko :

Port lotniczy Batam-Hang Nadim

Batam, Indonezja

Szerokość geograficzna: 01-07-15N, Długość geograficzna: 104-07-07E, wysokość: 38 m

Aktualna obserwacja pogody

Raport powstał 7 godziny i 24 minut temu, godzina 13:00 UTC
Wiatr 2 kt od południowy wschód
Temperatura 29°C
Wilgotność 74%
Ciśnienie 1013 hPa
Widzialność 10 km lub więcej
Mało chmury na wysokości 1400 ft

METAR: WIDD 301300Z 14002KT 9999 FEW014 29/24 Q1013 NOSIG

czas: 03:24 (20:24 UTC)

Prognoza

Raport powstał 3 godziny i 24 minut temu, godzina 17:00 UTC
Prognoza ważna od 30 godzina 18 UTC do 31 godzina 18 UTC
Wiatr 3 kt od południowy wschód
Widzialność 10 km lub więcej
Mało chmury na wysokości 1400 ft

TAF: WIDD 301700Z 3018/3118 14003KT 9999 FEW014

Obserwacja i prognoza pogody dla ponad 4000 lotnisk (raport METAR i TAF).

Dostępne stacje oznaczono żółtymi i czerwonymi punktami na mapie.

Najedź kursorem aby zobaczyć nazwę stacji.

Kliknij aby zobaczyć obserwacje i prognozy pogody.

Aby zmienić mapę: kliknij na zielony przycisk z czarnym krzyżykiem, aby powiększyć; na zielony przycisk z myślnikiem, aby pomniejszyć; na zielone strzałki, aby przejść do map sąsiednich.


METAR-TAF: